Mad River Glen, Vermont
Current Conditions -  °F | °C
As of 3:51 PM on Friday 24 Oct 2014 (Local Time) from KMPV Reporting Station
Overcast Overcast  
Wind Chill: 38°   Ceiling: 1200
Heat Index: 42°   Visibility: 10mi
Dew Point: 39°   Wind: 7mph
Humidity: 89%   Direction: 330°NNW
Pressure: 29.81"   Gusts: NA
Location:  44.1924°N, 72.8443°W
Report Text: KMPV 241951Z AUTO 33006KT 10SM OVC012 06/04 A2981 RMK AO2 SLP103 T00560039 $
Loading
Personal Weather Stations






























Interactive Weather Map New forecast layout! Learn more

10-Day Weather Forecast

Advertisements
Track Severe Weather on mobile